Terminal Aerodrome Forecast
Issued by NWS Cleveland, OH

Home | Current Version | Previous Version | Text Only | Print | Product List | Glossary On
Versions: 1 2 3 4 5 6 7 8 9 10 11 12 13
000
FTUS41 KCLE 270201 AAA
TAFMFD
TAF AMD
KMFD 270201Z 2702/2724 26008KT P6SM VCSH BKN050
     FM270300 23006KT P6SM SCT045 BKN200
     FM270700 26006KT P6SM FEW035 SCT200
      TEMPO 2707/2711 SCT006 BKN012
     FM271100 29008KT P6SM FEW020 SCT060
     FM272300 26006KT P6SM SCT040=

USA.gov is the U.S. government's official web portal to all federal, state and local government web resources and services.